Time;durP1;ratioP1;P1;durP2;ratioP2;P2;SDS_P1;SDS_P2;PMS_P1;PMS_P2;Temp;Humidity;BMP_temperature;BMP_pressure;BME280_temperature;BME280_humidity;BME280_pressure;Samples;Min_cycle;Max_cycle;Signal;HPM_P1;HPM_P2
2023/01/16 00:00:28;;;;;;;41.53;22.45;;;;;;;5.34;96.50;99539.25;5032715;28;20037;-75
2023/01/16 00:02:53;;;;;;;43.55;23.40;;;;;;;5.19;97.61;99537.53;5031525;28;20476;-76
2023/01/16 00:05:19;;;;;;;47.17;24.35;;;;;;;5.06;98.15;99539.09;5034209;28;20503;-75
2023/01/16 00:07:44;;;;;;;41.35;23.50;;;;;;;5.04;98.21;99540.50;5033839;28;20495;-76
2023/01/16 00:10:10;;;;;;;52.25;28.30;;;;;;;5.01;98.86;99519.75;5032484;28;20320;-75
2023/01/16 00:12:36;;;;;;;58.13;29.13;;;;;;;4.97;99.27;99529.75;5031823;28;20468;-76
2023/01/16 00:15:04;;;;;;;48.72;26.38;;;;;;;4.96;99.91;99521.75;5033019;28;20065;-76
2023/01/16 00:17:30;;;;;;;46.50;25.63;;;;;;;5.12;99.52;99531.53;5033275;28;20091;-76
2023/01/16 00:19:56;;;;;;;53.45;26.85;;;;;;;5.10;99.48;99517.13;5032231;28;20025;-76
2023/01/16 00:22:21;;;;;;;48.63;25.15;;;;;;;5.26;98.77;99523.31;5033544;28;20048;-76
2023/01/16 00:24:47;;;;;;;91.53;42.78;;;;;;;5.04;98.84;99523.84;5033806;28;20029;-76
2023/01/16 00:27:12;;;;;;;50.65;25.60;;;;;;;4.55;100.00;99534.13;5033441;28;20104;-75
2023/01/16 00:29:38;;;;;;;50.78;24.98;;;;;;;4.34;100.00;99532.41;5033634;28;20040;-76
2023/01/16 00:32:03;;;;;;;52.85;27.30;;;;;;;4.32;100.00;99531.84;5033516;28;20033;-75
2023/01/16 00:34:28;;;;;;;53.72;27.92;;;;;;;4.11;100.00;99527.63;5033101;28;20503;-75
2023/01/16 00:36:54;;;;;;;49.22;26.35;;;;;;;4.39;100.00;99527.91;5033533;28;20453;-76
2023/01/16 00:39:19;;;;;;;52.20;29.30;;;;;;;4.62;100.00;99529.06;5033496;28;20029;-75
2023/01/16 00:41:45;;;;;;;57.55;27.60;;;;;;;4.58;100.00;99534.34;5033088;28;20029;-75
2023/01/16 00:44:10;;;;;;;53.65;28.63;;;;;;;4.57;100.00;99513.31;5032813;28;20379;-75
2023/01/16 00:46:36;;;;;;;60.60;30.85;;;;;;;4.66;100.00;99513.50;5031710;28;20029;-76
2023/01/16 00:49:01;;;;;;;55.42;29.58;;;;;;;4.82;100.00;99522.44;5032969;28;20115;-76
2023/01/16 00:51:27;;;;;;;52.75;27.85;;;;;;;4.76;100.00;99521.69;5031631;28;20032;-75
2023/01/16 00:53:52;;;;;;;48.03;27.25;;;;;;;4.83;100.00;99503.88;5033376;28;20053;-76
2023/01/16 00:56:18;;;;;;;54.53;28.35;;;;;;;5.14;100.00;99517.38;5033088;28;20036;-75
2023/01/16 00:58:43;;;;;;;53.30;26.77;;;;;;;5.18;100.00;99519.22;5031839;28;20025;-75
2023/01/16 01:01:09;;;;;;;53.85;28.45;;;;;;;5.12;100.00;99514.03;5031615;28;20163;-76
2023/01/16 01:03:34;;;;;;;49.92;26.77;;;;;;;5.26;100.00;99503.06;5031628;28;20064;-76
2023/01/16 01:06:05;;;;;;;47.72;24.65;;;;;;;5.23;100.00;99514.75;5031510;28;20466;-76
2023/01/16 01:08:30;;;;;;;47.78;25.00;;;;;;;5.21;100.00;99512.28;5030727;28;20053;-76
2023/01/16 01:10:56;;;;;;;53.45;27.10;;;;;;;4.86;100.00;99515.22;5032703;28;20467;-76
2023/01/16 01:13:21;;;;;;;47.20;25.05;;;;;;;5.00;100.00;99509.75;5031147;28;20056;-76
2023/01/16 01:15:47;;;;;;;58.13;26.83;;;;;;;5.15;100.00;99507.94;5030885;28;20033;-76
2023/01/16 01:18:12;;;;;;;51.63;26.13;;;;;;;5.18;100.00;99515.66;5031110;28;20151;-76
2023/01/16 01:20:37;;;;;;;48.03;25.70;;;;;;;5.37;100.00;99520.38;5032765;28;20079;-76
2023/01/16 01:23:03;;;;;;;46.88;23.83;;;;;;;5.42;99.50;99510.03;5030819;28;20021;-76
2023/01/16 01:25:28;;;;;;;45.70;24.05;;;;;;;5.46;99.19;99504.72;5031117;28;20036;-76
2023/01/16 01:27:54;;;;;;;46.38;23.63;;;;;;;5.47;98.60;99501.66;5032353;28;20534;-75
2023/01/16 01:30:19;;;;;;;43.00;22.67;;;;;;;5.34;98.62;99499.63;5031825;28;20022;-76
2023/01/16 01:32:45;;;;;;;40.70;23.25;;;;;;;5.23;98.69;99503.66;5032159;28;20166;-76
2023/01/16 01:35:10;;;;;;;45.20;24.13;;;;;;;4.98;99.92;99498.16;5030646;28;20032;-76
2023/01/16 01:37:36;;;;;;;47.30;23.58;;;;;;;4.91;100.00;99503.25;5024081;28;20029;-76
2023/01/16 01:40:04;;;;;;;42.50;23.00;;;;;;;4.93;100.00;99492.69;5025866;28;20476;-76
2023/01/16 01:42:51;;;;;;;45.28;21.55;;;;;;;5.08;100.00;99486.13;5032049;28;20091;-77
2023/01/16 01:45:28;;;;;;;44.05;23.63;;;;;;;5.01;99.92;99480.09;5031881;28;20127;-76
2023/01/16 01:48:15;;;;;;;37.40;22.25;;;;;;;5.02;99.64;99488.13;5030329;28;20052;-76
2023/01/16 01:50:46;;;;;;;42.05;21.80;;;;;;;4.99;99.41;99485.13;5032058;28;20400;-76
2023/01/16 01:53:35;;;;;;;45.13;22.38;;;;;;;5.12;99.42;99483.53;5030679;28;20697;-76
2023/01/16 01:56:08;;;;;;;38.30;22.45;;;;;;;4.92;99.20;99496.56;5032143;28;20025;-76
2023/01/16 01:58:33;;;;;;;43.33;21.75;;;;;;;4.96;100.00;99480.19;5028835;28;20037;-76
2023/01/16 02:01:01;;;;;;;42.42;23.15;;;;;;;4.96;99.75;99478.22;5032005;28;20404;-76
2023/01/16 02:03:35;;;;;;;39.70;22.45;;;;;;;4.88;100.00;99481.63;5029776;28;20029;-75
2023/01/16 02:06:07;;;;;;;41.78;22.98;;;;;;;4.60;100.00;99484.19;5031849;28;20036;-76
2023/01/16 02:08:34;;;;;;;51.40;24.88;;;;;;;4.38;100.00;99484.72;5031192;28;20123;-77
2023/01/16 02:11:07;;;;;;;49.17;25.00;;;;;;;4.41;100.00;99471.13;5031740;28;20029;-75
2023/01/16 02:13:33;;;;;;;50.15;25.88;;;;;;;4.78;100.00;99477.06;5030163;28;20518;-76
2023/01/16 02:21:39;;;;;;;53.05;25.90;;;;;;;4.68;100.00;99479.94;5031445;28;20047;-75
2023/01/16 02:24:34;;;;;;;48.13;25.48;;;;;;;4.90;100.00;99468.34;5030052;28;20033;-76
2023/01/16 02:27:17;;;;;;;46.63;25.10;;;;;;;5.14;100.00;99482.13;5019957;28;20041;-76
2023/01/16 02:30:05;;;;;;;50.35;26.05;;;;;;;4.78;100.00;99486.22;5011998;28;20489;-76
2023/01/16 02:32:55;;;;;;;48.22;26.67;;;;;;;4.96;100.00;99486.53;5022995;28;20124;-76
2023/01/16 02:35:40;;;;;;;52.88;30.15;;;;;;;5.15;100.00;99486.56;5030029;28;20542;-76
2023/01/16 02:38:18;;;;;;;44.47;25.38;;;;;;;5.23;99.90;99485.06;5030011;28;20109;-76
2023/01/16 02:41:19;;;;;;;51.45;26.05;;;;;;;5.28;98.92;99479.47;5030875;28;20040;-76
2023/01/16 02:43:54;;;;;;;48.25;26.05;;;;;;;5.18;99.29;99480.41;5025409;28;20501;-76
2023/01/16 02:46:34;;;;;;;45.50;25.38;;;;;;;4.99;99.97;99477.63;5029542;28;20029;-75
2023/01/16 02:49:14;;;;;;;50.63;24.55;;;;;;;4.89;100.00;99463.91;5027593;28;20113;-76
2023/01/16 02:52:04;;;;;;;52.03;25.85;;;;;;;4.97;100.00;99468.78;5029492;28;20029;-76
2023/01/16 02:54:44;;;;;;;49.38;26.98;;;;;;;4.93;100.00;99459.41;5031250;28;20032;-76
2023/01/16 02:57:18;;;;;;;52.15;26.42;;;;;;;5.07;100.00;99453.97;5020035;28;20065;-76
2023/01/16 02:59:44;;;;;;;52.55;25.27;;;;;;;5.16;99.34;99449.38;5029986;28;20080;-76
2023/01/16 03:02:10;;;;;;;46.92;25.92;;;;;;;5.25;98.78;99446.78;5029515;28;20467;-76
2023/01/16 03:04:49;;;;;;;48.58;25.80;;;;;;;5.25;98.09;99462.59;5030870;28;20029;-76
2023/01/16 03:07:42;;;;;;;46.75;25.13;;;;;;;5.17;98.13;99445.47;5029725;28;20072;-76
2023/01/16 03:10:43;;;;;;;46.80;26.15;;;;;;;5.27;97.84;99452.84;5026410;28;20026;-76
2023/01/16 03:13:24;;;;;;;46.25;26.17;;;;;;;5.36;97.42;99452.16;5027379;28;20626;-76
2023/01/16 03:16:25;;;;;;;45.03;25.92;;;;;;;5.30;97.11;99446.69;5030774;28;20030;-76
2023/01/16 03:19:21;;;;;;;46.92;24.55;;;;;;;5.41;96.38;99449.31;5030683;28;20109;-76
2023/01/16 03:22:17;;;;;;;49.40;27.15;;;;;;;5.29;96.92;99431.19;5020990;28;20032;-76
2023/01/16 03:25:00;;;;;;;50.17;27.23;;;;;;;5.44;96.09;99444.00;5030641;28;20049;-76
2023/01/16 03:27:54;;;;;;;47.72;24.90;;;;;;;5.34;96.17;99436.63;5030317;28;20108;-76
2023/01/16 03:30:29;;;;;;;44.90;24.90;;;;;;;5.47;95.92;99437.84;5022218;28;20546;-76
2023/01/16 03:33:10;;;;;;;45.83;24.60;;;;;;;5.40;96.16;99431.84;5031206;28;20396;-76
2023/01/16 03:35:51;;;;;;;46.72;24.02;;;;;;;5.38;96.10;99419.41;5030708;28;20025;-76
2023/01/16 03:38:20;;;;;;;47.65;25.90;;;;;;;5.42;95.98;99429.56;5029502;28;20033;-76
2023/01/16 03:40:47;;;;;;;55.50;31.33;;;;;;;5.35;96.52;99426.38;5030608;28;20095;-76
2023/01/16 03:43:34;;;;;;;49.80;26.58;;;;;;;5.42;95.94;99428.75;5029343;28;20021;-76
2023/01/16 03:46:10;;;;;;;47.28;26.65;;;;;;;5.31;96.40;99428.91;5029873;28;20021;-76
2023/01/16 03:48:54;;;;;;;42.05;24.05;;;;;;;5.10;96.42;99422.03;5030836;28;20034;-76
2023/01/16 03:51:24;;;;;;;52.50;28.00;;;;;;;4.60;100.00;99423.25;5030235;28;20048;-76
2023/01/16 03:54:08;;;;;;;52.53;28.80;;;;;;;4.97;100.00;99421.66;5031454;28;20167;-76
2023/01/16 03:57:03;;;;;;;50.88;28.35;;;;;;;4.83;99.21;99398.56;5034199;28;20128;-76
2023/01/16 03:59:29;;;;;;;50.08;27.08;;;;;;;4.98;99.58;99405.84;5034171;28;20531;-76
2023/01/16 04:01:58;;;;;;;47.15;25.85;;;;;;;5.08;98.96;99407.63;5035498;28;20034;-77
2023/01/16 04:04:48;;;;;;;44.30;25.35;;;;;;;5.04;98.66;99396.31;5030862;28;20056;-76
2023/01/16 04:07:25;;;;;;;51.67;27.17;;;;;;;5.26;97.66;99400.44;5032409;28;20073;-76
2023/01/16 04:09:56;;;;;;;52.67;27.02;;;;;;;5.30;97.69;99396.78;5033825;28;20029;-77
2023/01/16 04:12:25;;;;;;;46.90;24.38;;;;;;;5.39;97.44;99398.88;5033742;28;20025;-77
2023/01/16 04:15:04;;;;;;;49.90;26.95;;;;;;;5.37;96.89;99398.31;5033555;28;20029;-76
2023/01/16 04:17:30;;;;;;;51.60;25.85;;;;;;;5.38;96.34;99377.81;5033660;28;20029;-76
2023/01/16 04:19:56;;;;;;;49.63;26.55;;;;;;;5.46;95.83;99382.63;5025982;28;20123;-76
2023/01/16 04:22:24;;;;;;;44.45;26.20;;;;;;;5.46;95.67;99380.69;5033256;28;20025;-77
2023/01/16 04:24:52;;;;;;;50.05;27.17;;;;;;;5.37;94.95;99376.97;5032300;28;20025;-76
2023/01/16 04:27:19;;;;;;;49.38;26.60;;;;;;;5.46;95.75;99379.88;5032025;28;20057;-76
2023/01/16 04:29:44;;;;;;;46.30;25.38;;;;;;;5.45;95.12;99383.78;5033439;28;20408;-77
2023/01/16 04:32:10;;;;;;;49.10;27.00;;;;;;;5.39;94.86;99371.94;5032085;28;20032;-77
2023/01/16 04:34:35;;;;;;;54.30;28.38;;;;;;;5.48;95.21;99377.59;5032307;28;20132;-76
2023/01/16 04:37:01;;;;;;;63.47;29.83;;;;;;;5.46;94.96;99364.06;5033423;28;20032;-77
2023/01/16 04:39:26;;;;;;;58.58;29.80;;;;;;;5.48;94.63;99361.81;5026471;28;20030;-77
2023/01/16 04:41:52;;;;;;;55.65;28.70;;;;;;;5.55;94.72;99380.81;5021340;28;20021;-77
2023/01/16 04:44:17;;;;;;;53.58;29.48;;;;;;;5.22;94.74;99372.47;5031863;28;20033;-77
2023/01/16 04:46:43;;;;;;;64.60;30.38;;;;;;;4.72;96.10;99371.00;5033000;28;20044;-77
2023/01/16 04:49:08;;;;;;;68.25;32.05;;;;;;;4.85;96.60;99368.59;5032172;28;20417;-76
2023/01/16 04:51:36;;;;;;;68.28;30.60;;;;;;;5.15;95.22;99366.50;5033025;28;20021;-76
2023/01/16 04:54:01;;;;;;;62.42;29.83;;;;;;;5.26;95.22;99369.94;5031786;28;20025;-76
2023/01/16 04:56:28;;;;;;;60.67;27.67;;;;;;;5.26;94.06;99364.38;5032961;28;20475;-76
2023/01/16 04:58:53;;;;;;;60.83;28.40;;;;;;;5.37;93.51;99370.56;5031579;28;20037;-76
2023/01/16 05:01:19;;;;;;;58.78;28.95;;;;;;;5.40;93.41;99372.78;5031724;28;20029;-76
2023/01/16 05:03:44;;;;;;;60.30;30.58;;;;;;;5.45;92.77;99362.41;5019215;28;20034;-76
2023/01/16 05:06:10;;;;;;;55.90;28.10;;;;;;;5.53;92.74;99371.16;5019673;28;20030;-76
2023/01/16 05:08:36;;;;;;;72.32;31.90;;;;;;;5.40;92.84;99365.25;5031064;28;20041;-77
2023/01/16 05:11:02;;;;;;;65.85;30.23;;;;;;;5.43;92.85;99367.44;5032594;28;20381;-76
2023/01/16 05:13:29;;;;;;;61.05;28.95;;;;;;;5.48;91.82;99364.56;5033176;28;20503;-76
2023/01/16 05:15:54;;;;;;;58.53;30.85;;;;;;;5.45;92.33;99353.25;5032936;28;20032;-76
2023/01/16 05:18:20;;;;;;;55.75;28.35;;;;;;;5.11;93.05;99351.59;5031634;28;20021;-77
2023/01/16 05:20:45;;;;;;;63.92;31.10;;;;;;;4.85;93.91;99344.50;5032919;28;20029;-76
2023/01/16 05:23:11;;;;;;;65.25;31.73;;;;;;;4.64;95.70;99333.69;5028557;28;20022;-76
2023/01/16 05:25:38;;;;;;;64.25;28.75;;;;;;;4.63;96.45;99326.50;5031161;28;20687;-76
2023/01/16 05:28:03;;;;;;;62.63;29.73;;;;;;;4.54;97.02;99322.75;5031353;28;20029;-76
2023/01/16 05:30:29;;;;;;;65.85;31.15;;;;;;;4.47;97.86;99316.78;5029176;28;20588;-78
2023/01/16 05:32:54;;;;;;;64.40;31.77;;;;;;;4.63;97.76;99320.13;5029606;28;20519;-75
2023/01/16 05:35:20;;;;;;;69.95;31.73;;;;;;;4.64;97.66;99330.94;5025895;28;20091;-76
2023/01/16 05:37:46;;;;;;;66.28;32.20;;;;;;;4.74;97.63;99329.94;5032253;28;20103;-76
2023/01/16 05:40:12;;;;;;;71.88;29.92;;;;;;;4.68;98.02;99316.47;5046057;28;20101;-75
2023/01/16 05:42:38;;;;;;;63.35;32.70;;;;;;;4.66;98.42;99321.50;5031969;28;20104;-76
2023/01/16 05:45:04;;;;;;;59.80;28.42;;;;;;;4.65;98.39;99315.13;5030482;28;20518;-76
2023/01/16 05:47:30;;;;;;;66.70;32.33;;;;;;;4.67;98.18;99320.38;5030292;28;20032;-76
2023/01/16 05:49:58;;;;;;;66.82;31.67;;;;;;;4.69;98.09;99323.66;5030186;28;20025;-75
2023/01/16 05:52:25;;;;;;;64.65;30.88;;;;;;;4.70;98.58;99323.38;5031155;28;20028;-73
2023/01/16 05:54:51;;;;;;;75.25;31.95;;;;;;;4.93;97.75;99323.59;5032255;28;20025;-76
2023/01/16 05:57:17;;;;;;;67.60;33.05;;;;;;;5.03;95.89;99331.75;5024229;28;20416;-77
2023/01/16 05:59:45;;;;;;;69.88;28.25;;;;;;;4.83;95.96;99319.03;5030034;28;20021;-75
2023/01/16 06:02:11;;;;;;;58.42;30.33;;;;;;;4.96;96.94;99327.72;5026796;28;20075;-74
2023/01/16 06:04:37;;;;;;;54.25;27.83;;;;;;;5.09;95.70;99323.34;5024961;28;20035;-73
2023/01/16 06:07:03;;;;;;;60.22;29.15;;;;;;;5.13;95.18;99327.97;5025722;28;20780;-73
2023/01/16 06:09:28;;;;;;;53.00;28.08;;;;;;;4.97;95.67;99326.59;5028682;28;20095;-74
2023/01/16 06:11:54;;;;;;;70.90;30.40;;;;;;;4.78;96.36;99330.19;5029397;28;20025;-72
2023/01/16 06:14:19;;;;;;;69.63;35.72;;;;;;;4.60;97.12;99327.13;5029737;28;20033;-73
2023/01/16 06:16:45;;;;;;;59.90;29.73;;;;;;;4.64;96.65;99322.63;5029781;28;20032;-74
2023/01/16 06:19:10;;;;;;;65.20;29.48;;;;;;;4.79;95.53;99326.28;5028618;28;20117;-73
2023/01/16 06:21:36;;;;;;;64.05;28.83;;;;;;;4.79;95.63;99337.38;5030215;28;20025;-73
2023/01/16 06:24:04;;;;;;;65.13;29.80;;;;;;;4.90;95.17;99336.09;5027815;28;20026;-74
2023/01/16 06:26:29;;;;;;;56.83;27.52;;;;;;;4.83;95.34;99329.28;5028429;28;20032;-72
2023/01/16 06:28:56;;;;;;;50.53;27.55;;;;;;;4.85;93.95;99338.94;5026984;28;20029;-74
2023/01/16 06:31:21;;;;;;;53.28;27.00;;;;;;;4.89;93.96;99347.50;5026391;28;20032;-73
2023/01/16 06:33:47;;;;;;;55.08;27.70;;;;;;;4.97;92.55;99338.47;5028162;28;20034;-72
2023/01/16 06:36:12;;;;;;;48.95;27.30;;;;;;;5.02;92.99;99338.44;5025028;28;20036;-75
2023/01/16 06:38:38;;;;;;;49.42;27.67;;;;;;;5.16;92.54;99337.66;5026364;28;20029;-73
2023/01/16 06:41:04;;;;;;;53.15;25.45;;;;;;;4.99;92.83;99311.28;5030184;28;20483;-75
2023/01/16 06:43:29;;;;;;;46.13;24.80;;;;;;;4.71;94.46;99324.19;5021086;28;20502;-73
2023/01/16 06:45:55;;;;;;;49.75;25.23;;;;;;;4.47;96.22;99312.03;5028008;28;20052;-73
2023/01/16 06:48:21;;;;;;;49.13;24.83;;;;;;;4.49;97.79;99314.53;5026853;28;20029;-72
2023/01/16 06:50:47;;;;;;;41.75;21.85;;;;;;;4.39;97.26;99315.47;5026864;28;20123;-73
2023/01/16 06:53:13;;;;;;;43.97;25.00;;;;;;;4.60;95.90;99310.50;5026382;28;20025;-73
2023/01/16 06:55:40;;;;;;;45.92;26.17;;;;;;;4.76;95.01;99301.94;5024980;28;20041;-74
2023/01/16 06:58:06;;;;;;;52.05;26.80;;;;;;;4.84;93.96;99292.13;5025312;28;20033;-73
2023/01/16 07:00:32;;;;;;;46.20;24.83;;;;;;;4.71;94.73;99289.00;5024941;28;20033;-74
2023/01/16 07:02:58;;;;;;;51.17;26.95;;;;;;;4.72;93.71;99290.63;5028391;28;20112;-74
2023/01/16 07:05:25;;;;;;;46.25;26.65;;;;;;;4.71;93.71;99268.78;5018074;28;20121;-74
2023/01/16 07:07:51;;;;;;;46.17;24.17;;;;;;;4.59;94.30;99269.22;5029986;28;20076;-75
2023/01/16 07:10:20;;;;;;;45.17;25.15;;;;;;;4.62;95.47;99271.38;5030924;28;20104;-75
2023/01/16 07:12:46;;;;;;;49.08;25.80;;;;;;;4.62;95.59;99265.84;5012967;28;20061;-74
2023/01/16 07:23:31;;;;;;;48.65;26.30;;;;;;;4.53;95.97;99254.63;5021120;28;20503;-74
2023/01/16 07:25:59;;;;;;;48.92;26.70;;;;;;;4.50;96.65;99249.69;5029120;28;20026;-75
2023/01/16 07:28:25;;;;;;;56.03;26.42;;;;;;;4.47;97.13;99248.34;5035752;28;20556;-75
2023/01/16 07:30:50;;;;;;;50.95;25.63;;;;;;;4.39;96.14;99246.22;5034454;28;20112;-75
2023/01/16 07:33:16;;;;;;;58.95;28.92;;;;;;;4.35;96.36;99240.50;5033726;28;20112;-74
2023/01/16 07:35:43;;;;;;;56.92;29.63;;;;;;;4.52;97.15;99246.59;5031955;28;20108;-74
2023/01/16 07:38:09;;;;;;;49.10;24.30;;;;;;;4.30;95.52;99231.44;5029124;28;20025;-74
2023/01/16 07:40:34;;;;;;;58.97;28.98;;;;;;;4.25;95.46;99215.72;5029334;28;20033;-74
2023/01/16 07:43:00;;;;;;;50.03;24.80;;;;;;;4.27;96.48;99238.38;5031073;28;20087;-74
2023/01/16 07:45:25;;;;;;;74.60;35.00;;;;;;;4.29;96.83;99233.38;5029311;28;20037;-74
2023/01/16 07:47:51;;;;;;;61.83;29.10;;;;;;;4.19;98.15;99239.03;5015130;28;20026;-73
2023/01/16 07:50:16;;;;;;;67.18;31.88;;;;;;;4.24;98.99;99241.75;5023205;28;20480;-74
2023/01/16 07:52:43;;;;;;;71.68;31.25;;;;;;;4.26;98.84;99258.91;5033778;28;20044;-73
2023/01/16 07:55:09;;;;;;;76.07;32.45;;;;;;;4.14;97.47;99248.25;5032730;28;20029;-75
2023/01/16 07:57:38;;;;;;;54.85;26.20;;;;;;;4.14;96.59;99275.13;5034430;28;20393;-74
2023/01/16 08:00:05;;;;;;;70.28;30.70;;;;;;;4.19;95.57;99283.34;5033856;28;20112;-73
2023/01/16 08:02:31;;;;;;;52.55;25.20;;;;;;;4.33;95.42;99277.91;5024746;28;20449;-74
2023/01/16 08:04:56;;;;;;;48.25;24.38;;;;;;;4.46;94.09;99281.88;5026926;28;20120;-74
2023/01/16 08:07:22;;;;;;;53.63;26.98;;;;;;;4.62;94.33;99294.38;5016886;28;20416;-74
2023/01/16 08:09:47;;;;;;;53.75;28.45;;;;;;;4.83;92.42;99291.31;5024399;28;20492;-74
2023/01/16 08:12:13;;;;;;;51.03;26.83;;;;;;;4.79;92.89;99276.41;5027280;28;20025;-74
2023/01/16 08:14:38;;;;;;;47.47;24.80;;;;;;;4.86;91.26;99292.66;5028996;28;20030;-74
2023/01/16 08:17:04;;;;;;;49.83;27.42;;;;;;;4.87;90.40;99286.81;5012868;28;20034;-73
2023/01/16 08:19:30;;;;;;;56.20;27.55;;;;;;;4.81;91.15;99265.84;5032591;28;20026;-74
2023/01/16 08:21:56;;;;;;;51.90;28.95;;;;;;;5.00;90.71;99273.31;5033511;28;20030;-74
2023/01/16 08:24:23;;;;;;;54.08;27.83;;;;;;;5.10;90.13;99278.69;5032510;28;20061;-74
2023/01/16 08:26:48;;;;;;;53.47;28.45;;;;;;;5.08;89.66;99289.25;5052290;28;20590;-74
2023/01/16 08:29:14;;;;;;;54.67;34.08;;;;;;;5.12;90.10;99287.53;5024709;28;20109;-75
2023/01/16 08:31:39;;;;;;;45.75;25.50;;;;;;;5.16;89.35;99291.31;5033680;28;20103;-75
2023/01/16 08:34:05;;;;;;;58.85;28.75;;;;;;;5.18;88.87;99277.97;5023070;28;20044;-74
2023/01/16 08:36:30;;;;;;;62.53;31.60;;;;;;;5.23;89.35;99268.75;5031958;28;20508;-74
2023/01/16 08:38:56;;;;;;;53.00;28.40;;;;;;;5.15;89.37;99261.16;5030406;28;20029;-75
2023/01/16 08:52:27;;;;;;;48.33;26.15;;;;;;;5.07;90.98;99251.56;5029798;28;20045;-74
2023/01/16 08:54:53;;;;;;;51.00;27.63;;;;;;;5.17;89.93;99251.38;5032808;28;20029;-74
2023/01/16 08:57:18;;;;;;;56.22;28.70;;;;;;;5.18;90.28;99247.47;5028066;28;20106;-74
2023/01/16 08:59:44;;;;;;;45.63;26.00;;;;;;;5.23;89.84;99251.28;5033301;28;20408;-74
2023/01/16 09:02:11;;;;;;;51.88;27.73;;;;;;;5.06;88.82;99236.03;5032223;28;20512;-74
2023/01/16 09:04:37;;;;;;;55.20;28.35;;;;;;;4.85;89.25;99236.41;5013233;28;20029;-74
2023/01/16 09:07:02;;;;;;;54.30;27.45;;;;;;;5.05;89.31;99232.47;5028400;28;20111;-74
2023/01/16 09:09:29;;;;;;;50.30;25.58;;;;;;;5.13;89.16;99221.78;5033233;28;20036;-74
2023/01/16 09:14:39;;;;;;;53.22;27.67;;;;;;;5.11;90.08;99219.34;5032380;28;20029;-74
2023/01/16 09:17:06;;;;;;;58.40;31.10;;;;;;;5.03;90.55;99211.69;5032291;28;20030;-74
2023/01/16 09:19:32;;;;;;;75.18;38.38;;;;;;;5.00;92.08;99210.34;5029372;28;20033;-74
2023/01/16 09:21:57;;;;;;;55.17;27.17;;;;;;;5.06;89.88;99200.84;5035798;28;20033;-75
2023/01/16 09:24:23;;;;;;;65.15;33.67;;;;;;;5.03;90.39;99204.22;5033598;28;20026;-74
2023/01/16 09:26:48;;;;;;;57.65;30.52;;;;;;;5.10;90.70;99212.16;5024605;28;20041;-74
2023/01/16 09:29:14;;;;;;;73.13;38.03;;;;;;;5.03;91.32;99200.63;5031768;28;20486;-74
2023/01/16 09:31:39;;;;;;;62.00;31.85;;;;;;;5.06;91.22;99194.44;5019177;28;20527;-74
2023/01/16 09:34:05;;;;;;;60.70;31.88;;;;;;;5.10;90.89;99195.50;5031407;28;20424;-74
2023/01/16 09:36:30;;;;;;;43.38;24.95;;;;;;;5.02;90.20;99193.44;5033882;28;20084;-74
2023/01/16 09:38:55;;;;;;;47.00;25.77;;;;;;;5.00;90.49;99182.63;5032397;28;20025;-74
2023/01/16 09:44:11;;;;;;;55.28;26.27;;;;;;;4.96;90.73;99173.28;5024129;28;20028;-74
2023/01/16 09:46:42;;;;;;;52.40;31.50;;;;;;;4.99;90.11;99166.31;5030231;28;20123;-74
2023/01/16 09:49:23;;;;;;;94.00;52.70;;;;;;;5.07;89.62;99162.84;5030999;28;20525;-75
2023/01/16 10:00:34;;;;;;;42.20;24.02;;;;;;;5.09;89.33;99157.81;5015529;28;20048;-72
2023/01/16 10:03:00;;;;;;;44.88;25.75;;;;;;;5.08;89.49;99164.50;5029870;28;20059;-73
2023/01/16 10:05:37;;;;;;;41.58;25.00;;;;;;;5.18;88.56;99155.97;5027356;28;20029;-74
2023/01/16 10:08:08;;;;;;;49.22;27.65;;;;;;;5.29;88.55;99151.06;5027737;28;20060;-73
2023/01/16 10:11:08;;;;;;;47.97;28.00;;;;;;;5.42;89.22;99149.41;5026067;28;20492;-76
2023/01/16 10:13:58;;;;;;;115.68;51.45;;;;;;;5.28;88.30;99138.31;5019362;28;20401;-74
2023/01/16 10:16:34;;;;;;;;;;;;;;;5.28;87.91;99140.25;5031467;28;20026;-74
2023/01/16 10:19:39;;;;;;;60.25;32.47;;;;;;;5.23;89.30;99132.06;5028108;28;19913;-74
2023/01/16 10:22:12;;;;;;;65.30;32.95;;;;;;;5.08;89.24;99124.84;5041653;28;20468;-74
2023/01/16 10:24:56;;;;;;;58.05;28.75;;;;;;;4.85;90.72;99128.31;5011803;28;20481;-74
2023/01/16 10:27:40;;;;;;;59.67;31.77;;;;;;;4.88;91.30;99126.88;5020496;28;20037;-74
2023/01/16 10:30:14;;;;;;;57.58;31.00;;;;;;;4.82;90.14;99125.34;5017270;28;20026;-74
2023/01/16 10:32:47;;;;;;;66.13;32.15;;;;;;;4.91;88.95;99104.91;5031015;28;20034;-74
2023/01/16 10:35:20;;;;;;;93.25;43.63;;;;;;;5.14;88.77;99088.41;5028325;28;20061;-74
2023/01/16 10:37:46;;;;;;;67.57;34.17;;;;;;;5.09;89.65;99077.41;5030724;28;20021;-74
2023/01/16 10:40:29;;;;;;;79.05;39.88;;;;;;;5.13;89.45;99075.66;5031025;28;20041;-74
2023/01/16 10:51:23;;;;;;;54.60;29.35;;;;;;;5.50;87.09;99075.75;5018255;28;20051;-74
2023/01/16 10:53:48;;;;;;;56.03;30.23;;;;;;;5.59;86.18;99064.72;5030470;28;20472;-73
2023/01/16 10:56:14;;;;;;;48.10;26.58;;;;;;;5.60;86.13;99058.84;5030463;28;20041;-74
2023/01/16 10:58:42;;;;;;;48.50;29.48;;;;;;;5.46;87.17;99060.84;5031860;28;20384;-74
2023/01/16 11:01:14;;;;;;;56.50;30.10;;;;;;;5.46;86.35;99053.34;5024059;28;20418;-74
2023/01/16 11:03:52;;;;;;;62.08;31.35;;;;;;;5.42;85.39;99043.19;5033053;28;20479;-74
2023/01/16 11:06:21;;;;;;;57.38;29.70;;;;;;;5.58;86.48;99043.66;5021408;28;20095;-74
2023/01/16 11:08:54;;;;;;;53.72;27.60;;;;;;;5.58;85.48;99049.22;5017168;28;20095;-75
2023/01/16 11:20:24;;;;;;;48.72;26.20;;;;;;;5.50;85.21;99030.53;5028838;28;20056;-74
2023/01/16 11:22:59;;;;;;;50.60;28.98;;;;;;;5.60;85.81;99035.84;5018091;28;20482;-73
2023/01/16 11:25:27;;;;;;;57.63;29.70;;;;;;;5.46;86.48;99025.63;5021415;28;20045;-74
2023/01/16 11:27:57;;;;;;;61.92;33.95;;;;;;;5.46;86.60;99030.31;5019738;28;20055;-75
2023/01/16 11:30:32;;;;;;;116.10;46.47;;;;;;;5.39;87.65;99027.19;5020358;28;20025;-74
2023/01/16 11:32:57;;;;;;;53.33;27.85;;;;;;;5.46;86.82;99025.63;5020118;28;20022;-74
2023/01/16 11:35:34;;;;;;;65.68;28.35;;;;;;;5.39;86.97;99022.44;5021361;28;20560;-74
2023/01/16 11:38:05;;;;;;;65.13;32.40;;;;;;;5.55;86.79;99034.00;5017791;28;20049;-74
2023/01/16 11:40:45;;;;;;;54.10;29.23;;;;;;;5.42;86.56;99035.66;5016262;28;22760;-73
2023/01/16 11:46:12;;;;;;;47.45;25.42;;;;;;;5.61;85.92;99035.56;5027957;28;20037;-74
2023/01/16 11:48:48;;;;;;;68.80;31.30;;;;;;;5.77;85.55;99032.41;5025841;28;20416;-74
2023/01/16 11:51:21;;;;;;;141.05;57.05;;;;;;;5.85;85.28;99031.66;5025898;28;20028;-74
2023/01/16 11:53:48;;;;;;;125.88;52.08;;;;;;;5.93;85.55;99010.66;5031815;28;20029;-73
2023/01/16 11:56:15;;;;;;;65.30;30.88;;;;;;;5.97;85.37;99017.22;5021603;28;20017;-74
2023/01/16 11:59:06;;;;;;;58.35;30.02;;;;;;;6.12;84.50;99012.44;5031554;28;20044;-74
2023/01/16 12:08:21;;;;;;;47.88;25.48;;;;;;;5.86;82.07;98996.41;5033454;28;20060;-75
2023/01/16 12:11:08;;;;;;;41.70;23.80;;;;;;;5.93;82.14;98994.00;5029250;28;20420;-74
2023/01/16 12:16:42;;;;;;;48.55;23.85;;;;;;;5.83;81.61;98980.38;5038231;28;20127;-73
2023/01/16 12:19:23;;;;;;;47.53;25.50;;;;;;;5.89;81.57;98981.88;5019971;28;20034;-74
2023/01/16 12:22:10;;;;;;;78.63;36.70;;;;;;;5.86;81.20;98971.41;5017573;28;20490;-74
2023/01/16 12:24:57;;;;;;;46.60;25.83;;;;;;;5.91;81.19;98965.72;5013991;28;20113;-75
2023/01/16 12:27:39;;;;;;;47.95;25.70;;;;;;;5.86;82.04;98960.31;5025948;28;20037;-74
2023/01/16 12:30:10;;;;;;;48.10;25.08;;;;;;;5.44;83.53;98966.03;5016827;28;20091;-74
2023/01/16 12:33:21;;;;;;;50.35;25.20;;;;;;;5.56;83.67;98957.16;5044797;28;20129;-74
2023/01/16 12:36:06;;;;;;;46.80;25.80;;;;;;;5.35;84.41;98960.41;5033907;28;20124;-75
2023/01/16 12:39:02;;;;;;;133.15;70.72;;;;;;;5.30;85.73;98961.34;5032746;28;20037;-74
2023/01/16 12:45:15;;;;;;;48.42;25.20;;;;;;;5.52;84.52;98962.50;5022511;28;20075;-74
2023/01/16 12:47:58;;;;;;;57.45;30.65;;;;;;;5.40;84.41;98960.28;5015866;28;20026;-74
2023/01/16 12:50:42;;;;;;;55.40;29.00;;;;;;;5.55;85.10;98944.41;5015164;28;20040;-73
2023/01/16 12:53:20;;;;;;;72.78;33.65;;;;;;;5.64;84.87;98950.03;5026644;28;20110;-72